createdAt,value
2022-08-20T00:01:18.220Z,21.07
2022-08-20T00:03:51.698Z,21.10
2022-08-20T00:06:24.488Z,21.10
2022-08-20T00:08:53.168Z,21.13
2022-08-20T00:11:25.396Z,21.17
2022-08-20T00:13:59.485Z,21.24
2022-08-20T00:16:32.529Z,21.28
2022-08-20T00:19:00.945Z,21.33
2022-08-20T00:21:29.139Z,21.34
2022-08-20T00:23:59.678Z,21.27
2022-08-20T00:26:27.345Z,21.28
2022-08-20T00:28:55.598Z,21.28
2022-08-20T00:31:25.005Z,21.26
2022-08-20T00:33:53.636Z,21.22
2022-08-20T00:36:22.211Z,21.10
2022-08-20T00:39:00.070Z,21.13
2022-08-20T00:41:29.542Z,21.27
2022-08-20T00:44:14.920Z,21.28
2022-08-20T00:46:44.885Z,21.26
2022-08-20T00:49:18.851Z,21.26
2022-08-20T00:51:55.578Z,21.17
2022-08-20T00:54:46.863Z,21.04
2022-08-20T00:57:59.101Z,21.07
2022-08-20T01:00:32.429Z,21.02
2022-08-20T01:03:01.306Z,20.83
2022-08-20T01:05:30.064Z,20.80
2022-08-20T01:07:59.598Z,20.76
2022-08-20T01:10:34.770Z,20.59
2022-08-20T01:13:11.888Z,20.44
2022-08-20T01:15:46.719Z,20.58
2022-08-20T01:18:20.365Z,20.61
2022-08-20T01:21:02.927Z,20.59
2022-08-20T01:23:45.901Z,20.53
2022-08-20T01:26:24.377Z,20.55
2022-08-20T01:29:02.445Z,20.47
2022-08-20T01:31:33.987Z,20.44
2022-08-20T01:34:04.546Z,20.42
2022-08-20T01:36:45.921Z,20.35
2022-08-20T01:39:23.098Z,20.35
2022-08-20T01:42:09.679Z,20.27
2022-08-20T01:44:41.741Z,20.13
2022-08-20T01:47:15.984Z,20.07
2022-08-20T01:49:49.896Z,19.90
2022-08-20T01:52:35.808Z,19.96
2022-08-20T01:55:04.646Z,19.76
2022-08-20T01:57:34.980Z,19.66
2022-08-20T02:00:19.867Z,19.60
2022-08-20T02:02:49.479Z,19.80
2022-08-20T02:05:18.197Z,19.69
2022-08-20T02:07:46.180Z,19.71
2022-08-20T02:10:17.189Z,19.67
2022-08-20T02:12:45.082Z,19.81
2022-08-20T02:15:17.046Z,19.83
2022-08-20T02:17:59.985Z,19.81
2022-08-20T02:20:30.369Z,19.94
2022-08-20T02:23:01.678Z,19.84
2022-08-20T02:25:33.880Z,19.89
2022-08-20T02:28:05.798Z,20.00
2022-08-20T02:30:39.219Z,20.07
2022-08-20T02:33:12.069Z,19.97
2022-08-20T02:35:42.981Z,19.93
2022-08-20T02:38:15.698Z,19.84
2022-08-20T02:40:47.003Z,19.90
2022-08-20T02:43:20.363Z,19.91
2022-08-20T02:45:48.202Z,19.97
2022-08-20T02:48:23.304Z,19.98
2022-08-20T02:50:54.648Z,20.01
2022-08-20T02:53:26.296Z,19.89
2022-08-20T02:55:56.134Z,19.69
2022-08-20T02:58:24.854Z,19.87
2022-08-20T03:00:53.171Z,19.83
2022-08-20T03:03:28.117Z,19.73
2022-08-20T03:06:00.271Z,19.70
2022-08-20T03:08:29.455Z,19.83
2022-08-20T03:10:57.521Z,19.98
2022-08-20T03:13:27.435Z,20.08
2022-08-20T03:15:59.730Z,19.97
2022-08-20T03:18:32.156Z,19.83
2022-08-20T03:21:00.409Z,19.45
2022-08-20T03:23:28.434Z,19.22
2022-08-20T03:25:56.929Z,19.12
2022-08-20T03:28:25.866Z,18.98
2022-08-20T03:30:54.749Z,18.87
2022-08-20T03:33:22.874Z,19.00
2022-08-20T03:35:50.956Z,19.01
2022-08-20T03:38:32.602Z,19.05
2022-08-20T03:41:05.919Z,19.01
2022-08-20T03:43:35.595Z,18.95
2022-08-20T03:46:03.581Z,18.83
2022-08-20T03:48:31.728Z,18.81
2022-08-20T03:51:01.460Z,18.88
2022-08-20T03:53:33.456Z,18.85
2022-08-20T03:56:05.080Z,18.80
2022-08-20T03:58:36.478Z,18.71
2022-08-20T04:01:06.803Z,18.81
2022-08-20T04:03:35.378Z,18.90
2022-08-20T04:06:03.740Z,18.68
2022-08-20T04:08:33.645Z,18.60
2022-08-20T04:11:04.990Z,18.49
2022-08-20T04:13:33.362Z,18.57
2022-08-20T04:16:10.150Z,18.50
2022-08-20T04:18:43.058Z,18.52
2022-08-20T04:21:32.829Z,18.42
2022-08-20T04:24:03.016Z,18.43
2022-08-20T04:26:31.919Z,18.50
2022-08-20T04:28:59.831Z,18.50
2022-08-20T04:31:34.496Z,18.46
2022-08-20T04:34:06.303Z,18.33
2022-08-20T04:36:35.448Z,18.46
2022-08-20T04:39:04.132Z,18.16
2022-08-20T04:41:32.132Z,18.17
2022-08-20T04:44:00.662Z,18.06
2022-08-20T04:46:32.829Z,18.04
2022-08-20T04:49:03.924Z,18.09
2022-08-20T04:51:34.070Z,17.99
2022-08-20T04:54:04.845Z,18.08
2022-08-20T04:56:40.036Z,17.96
2022-08-20T04:59:09.180Z,18.08
2022-08-20T05:01:36.795Z,17.99
2022-08-20T05:04:04.575Z,18.01
2022-08-20T05:06:33.401Z,17.96
2022-08-20T05:09:01.826Z,17.98
2022-08-20T05:11:36.732Z,17.89
2022-08-20T05:14:10.291Z,17.84
2022-08-20T05:16:41.372Z,17.74
2022-08-20T05:19:14.061Z,17.63
2022-08-20T05:21:43.046Z,17.68
2022-08-20T05:24:14.428Z,17.82
2022-08-20T05:26:43.570Z,17.61
2022-08-20T05:29:14.954Z,17.55
2022-08-20T05:31:44.985Z,17.50
2022-08-20T05:34:15.058Z,17.51
2022-08-20T05:36:49.688Z,17.57
2022-08-20T05:39:20.799Z,17.79
2022-08-20T05:41:51.570Z,17.86
2022-08-20T05:44:20.812Z,17.94
2022-08-20T05:46:49.493Z,17.91
2022-08-20T05:49:21.714Z,17.96
2022-08-20T05:51:52.735Z,17.64
2022-08-20T05:54:22.110Z,17.91
2022-08-20T05:56:51.285Z,18.01
2022-08-20T05:59:23.548Z,17.94
2022-08-20T06:01:52.819Z,18.02
2022-08-20T06:04:28.024Z,18.01
2022-08-20T06:07:01.958Z,18.06
2022-08-20T06:09:32.657Z,18.21
2022-08-20T06:12:06.387Z,18.13
2022-08-20T06:14:34.421Z,18.01
2022-08-20T06:17:07.349Z,18.02
2022-08-20T06:19:37.725Z,18.01
2022-08-20T06:22:17.940Z,18.29
2022-08-20T06:24:50.723Z,18.78
2022-08-20T06:27:19.317Z,19.26
2022-08-20T06:29:47.124Z,19.01
2022-08-20T06:32:15.903Z,18.90
2022-08-20T06:34:49.976Z,18.85
2022-08-20T06:37:28.145Z,18.77
2022-08-20T06:40:07.898Z,18.90
2022-08-20T06:42:37.343Z,18.81
2022-08-20T06:45:05.845Z,18.70
2022-08-20T06:47:34.258Z,18.59
2022-08-20T06:50:02.074Z,18.49
2022-08-20T06:52:49.008Z,18.46
2022-08-20T06:55:18.297Z,18.60
2022-08-20T06:57:48.379Z,18.61
2022-08-20T07:00:20.818Z,18.61
2022-08-20T07:02:48.476Z,18.92
2022-08-20T07:05:16.657Z,19.00
2022-08-20T07:07:49.646Z,19.11
2022-08-20T07:10:20.371Z,18.94
2022-08-20T07:12:50.112Z,18.46
2022-08-20T07:15:20.004Z,18.37
2022-08-20T07:18:01.372Z,18.39
2022-08-20T07:20:31.925Z,18.26
2022-08-20T07:23:01.165Z,18.15
2022-08-20T07:25:30.493Z,18.21
2022-08-20T07:28:04.166Z,18.35
2022-08-20T07:30:56.821Z,18.39
2022-08-20T07:33:29.171Z,18.65
2022-08-20T07:35:59.699Z,18.78
2022-08-20T07:38:30.437Z,18.77
2022-08-20T07:41:03.868Z,18.75
2022-08-20T07:43:33.350Z,18.71
2022-08-20T07:46:08.900Z,18.80
2022-08-20T07:48:40.802Z,19.08
2022-08-20T07:51:14.564Z,19.63
2022-08-20T07:53:44.703Z,19.89
2022-08-20T07:56:19.246Z,20.42
2022-08-20T07:58:55.724Z,20.32
2022-08-20T08:01:28.642Z,19.96
2022-08-20T08:03:57.744Z,20.27
2022-08-20T08:06:30.160Z,20.65
2022-08-20T08:09:14.449Z,20.39
2022-08-20T08:11:52.375Z,21.37
2022-08-20T08:14:28.095Z,21.41
2022-08-20T08:16:59.804Z,21.27
2022-08-20T08:19:36.353Z,21.43
2022-08-20T08:22:13.246Z,21.14
2022-08-20T08:24:56.771Z,20.55
2022-08-20T08:27:25.519Z,20.31
2022-08-20T08:29:53.449Z,19.90
2022-08-20T08:32:22.951Z,20.41
2022-08-20T08:34:50.788Z,20.76
2022-08-20T08:37:18.555Z,20.89
2022-08-20T08:39:46.621Z,20.71
2022-08-20T08:42:33.768Z,21.13
2022-08-20T08:45:05.161Z,21.26
2022-08-20T08:47:39.127Z,21.23
2022-08-20T08:50:43.834Z,21.23
2022-08-20T08:53:23.653Z,21.19
2022-08-20T08:55:51.394Z,21.31
2022-08-20T08:58:19.300Z,21.61
2022-08-20T09:00:50.776Z,22.13
2022-08-20T09:03:29.804Z,22.33
2022-08-20T09:06:02.932Z,21.85
2022-08-20T09:08:42.508Z,21.04
2022-08-20T09:11:11.675Z,20.69
2022-08-20T09:13:43.495Z,20.75
2022-08-20T09:16:15.236Z,21.30
2022-08-20T09:18:44.653Z,21.27
2022-08-20T09:21:14.652Z,20.99
2022-08-20T09:23:45.814Z,20.86
2022-08-20T09:26:15.189Z,20.97
2022-08-20T09:28:44.228Z,21.07
2022-08-20T09:31:19.073Z,21.07
2022-08-20T09:33:50.754Z,20.75
2022-08-20T09:36:30.706Z,20.85
2022-08-20T09:39:03.102Z,20.87
2022-08-20T09:41:33.806Z,21.07
2022-08-20T09:44:02.556Z,20.83
2022-08-20T09:46:31.244Z,20.69
2022-08-20T09:48:59.034Z,20.68
2022-08-20T09:51:27.756Z,20.93
2022-08-20T09:53:57.716Z,21.81
2022-08-20T09:56:26.895Z,21.55
2022-08-20T09:59:01.069Z,21.69
2022-08-20T10:01:32.621Z,21.79
2022-08-20T10:04:01.690Z,22.46
2022-08-20T10:06:29.362Z,22.29
2022-08-20T10:08:57.245Z,21.92
2022-08-20T10:11:25.043Z,22.13
2022-08-20T10:13:52.767Z,21.88
2022-08-20T10:16:20.532Z,21.31
2022-08-20T10:18:51.122Z,22.84
2022-08-20T10:21:19.553Z,24.21
2022-08-20T10:23:47.383Z,24.79
2022-08-20T10:26:17.353Z,23.28
2022-08-20T10:28:45.066Z,23.71
2022-08-20T10:31:15.597Z,24.31
2022-08-20T10:33:43.630Z,25.27
2022-08-20T10:36:16.404Z,25.92
2022-08-20T10:38:45.651Z,25.21
2022-08-20T10:41:14.899Z,25.48
2022-08-20T10:43:43.538Z,25.82
2022-08-20T10:46:15.604Z,25.58
2022-08-20T10:48:43.633Z,25.54
2022-08-20T10:51:15.684Z,25.44
2022-08-20T10:53:44.608Z,25.49
2022-08-20T10:56:15.774Z,26.61
2022-08-20T10:58:44.552Z,27.08
2022-08-20T11:01:28.783Z,26.78
2022-08-20T11:04:00.832Z,26.43
2022-08-20T11:06:28.492Z,26.47
2022-08-20T11:08:56.905Z,27.43
2022-08-20T11:11:24.917Z,26.81
2022-08-20T11:13:52.717Z,27.04
2022-08-20T11:16:20.579Z,27.21
2022-08-20T11:18:50.444Z,27.54
2022-08-20T11:21:18.119Z,28.11
2022-08-20T11:23:45.663Z,27.60
2022-08-20T11:26:23.561Z,27.60
2022-08-20T11:28:51.386Z,26.73
2022-08-20T11:31:19.015Z,26.37
2022-08-20T11:33:46.809Z,25.90
2022-08-20T11:36:15.585Z,26.37
2022-08-20T11:38:44.497Z,27.47
2022-08-20T11:41:16.061Z,27.50
2022-08-20T11:43:59.457Z,27.96
2022-08-20T11:46:33.182Z,28.59
2022-08-20T11:49:01.313Z,28.19
2022-08-20T11:51:29.016Z,27.84
2022-08-20T11:53:59.751Z,27.47
2022-08-20T11:56:29.588Z,27.80
2022-08-20T11:58:58.323Z,28.37
2022-08-20T12:01:26.037Z,28.80
2022-08-20T12:03:53.710Z,28.82
2022-08-20T12:06:21.349Z,27.97
2022-08-20T12:08:49.217Z,26.37
2022-08-20T12:11:16.769Z,25.74
2022-08-20T12:13:48.224Z,25.30
2022-08-20T12:16:19.092Z,25.35
2022-08-20T12:18:48.039Z,26.22
2022-08-20T12:21:16.976Z,26.54
2022-08-20T12:23:44.555Z,26.27
2022-08-20T12:26:14.708Z,26.02
2022-08-20T12:28:42.827Z,25.82
2022-08-20T12:31:11.923Z,26.06
2022-08-20T12:33:41.307Z,26.44
2022-08-20T12:36:09.315Z,26.84
2022-08-20T12:38:37.109Z,27.06
2022-08-20T12:41:04.835Z,27.15
2022-08-20T12:43:32.473Z,26.91
2022-08-20T12:46:00.894Z,26.92
2022-08-20T12:48:28.497Z,26.22
2022-08-20T12:50:56.186Z,26.13
2022-08-20T12:53:23.988Z,26.25
2022-08-20T12:55:51.719Z,26.64
2022-08-20T12:58:19.547Z,26.90
2022-08-20T13:00:50.904Z,26.27
2022-08-20T13:03:20.793Z,26.60
2022-08-20T13:05:50.545Z,26.92
2022-08-20T13:08:19.897Z,27.11
2022-08-20T13:10:48.511Z,26.83
2022-08-20T13:13:20.567Z,26.70
2022-08-20T13:15:51.319Z,26.80
2022-08-20T13:18:20.016Z,26.70
2022-08-20T13:20:48.039Z,26.92
2022-08-20T13:23:16.227Z,26.53
2022-08-20T13:25:45.535Z,26.43
2022-08-20T13:28:15.198Z,26.39
2022-08-20T13:30:43.546Z,25.84
2022-08-20T13:33:13.230Z,25.90
2022-08-20T13:35:46.175Z,26.39
2022-08-20T13:38:16.762Z,26.57
2022-08-20T13:40:47.524Z,26.36
2022-08-20T13:43:16.702Z,26.51
2022-08-20T13:45:44.544Z,26.80
2022-08-20T13:48:14.828Z,26.85
2022-08-20T13:50:47.126Z,26.55
2022-08-20T13:53:16.627Z,26.36
2022-08-20T13:55:45.713Z,26.39
2022-08-20T13:58:15.067Z,26.37
2022-08-20T14:00:43.751Z,26.61
2022-08-20T14:03:19.866Z,26.75
2022-08-20T14:05:48.603Z,26.61
2022-08-20T14:08:23.196Z,26.61
2022-08-20T14:10:51.524Z,26.26
2022-08-20T14:13:22.491Z,26.07
2022-08-20T14:15:50.618Z,26.09
2022-08-20T14:18:18.907Z,26.17
2022-08-20T14:20:47.093Z,26.00
2022-08-20T14:23:15.956Z,26.17
2022-08-20T14:25:47.455Z,26.47
2022-08-20T14:28:19.155Z,26.67
2022-08-20T14:30:52.858Z,26.51
2022-08-20T14:33:24.300Z,26.65
2022-08-20T14:35:53.166Z,26.98
2022-08-20T14:38:21.006Z,26.96
2022-08-20T14:40:50.442Z,27.08
2022-08-20T14:43:18.766Z,26.84
2022-08-20T14:45:46.474Z,26.73
2022-08-20T14:48:15.356Z,26.67
2022-08-20T14:50:45.560Z,26.73
2022-08-20T14:53:14.782Z,26.87
2022-08-20T14:55:43.442Z,26.77
2022-08-20T14:58:16.983Z,26.30
2022-08-20T15:00:44.976Z,26.36
2022-08-20T15:03:15.047Z,25.96
2022-08-20T15:05:43.971Z,25.72
2022-08-20T15:08:15.327Z,25.71
2022-08-20T15:10:43.999Z,25.90
2022-08-20T15:13:21.390Z,26.09
2022-08-20T15:15:49.102Z,26.25
2022-08-20T15:18:17.369Z,26.13
2022-08-20T15:20:45.032Z,25.98
2022-08-20T15:23:15.128Z,26.30
2022-08-20T15:25:44.032Z,26.60
2022-08-20T15:28:15.560Z,26.71
2022-08-20T15:30:43.684Z,26.40
2022-08-20T15:33:14.376Z,26.36
2022-08-20T15:35:42.968Z,26.10
2022-08-20T15:38:11.666Z,26.20
2022-08-20T15:40:42.651Z,26.13
2022-08-20T15:43:12.119Z,26.17
2022-08-20T15:45:41.258Z,26.47
2022-08-20T15:48:19.180Z,26.51
2022-08-20T15:51:18.386Z,26.46
2022-08-20T15:53:55.769Z,26.64
2022-08-20T15:56:38.705Z,26.13
2022-08-20T15:59:40.909Z,26.34
2022-08-20T16:02:31.150Z,26.55
2022-08-20T16:05:11.716Z,26.54
2022-08-20T16:07:46.016Z,26.57
2022-08-20T16:10:23.781Z,26.39
2022-08-20T16:12:57.832Z,26.36
2022-08-20T16:15:34.744Z,26.23
2022-08-20T16:18:15.222Z,26.05
2022-08-20T16:20:51.883Z,26.05
2022-08-20T16:23:36.839Z,26.10
2022-08-20T16:26:43.578Z,25.99
2022-08-20T16:29:17.487Z,25.62
2022-08-20T16:32:24.876Z,25.51
2022-08-20T16:35:06.287Z,25.62
2022-08-20T16:37:45.724Z,25.51
2022-08-20T16:40:34.757Z,25.62
2022-08-20T16:43:07.849Z,25.24
2022-08-20T16:46:05.829Z,25.07
2022-08-20T16:48:44.848Z,24.59
2022-08-20T16:51:22.393Z,24.82
2022-08-20T16:53:50.044Z,25.09
2022-08-20T16:56:45.102Z,25.20
2022-08-20T16:59:24.691Z,25.30
2022-08-20T17:02:10.449Z,25.35
2022-08-20T17:04:59.217Z,25.37
2022-08-20T17:07:52.824Z,25.40
2022-08-20T17:10:55.687Z,25.37
2022-08-20T17:13:34.374Z,24.87
2022-08-20T17:16:15.545Z,24.94
2022-08-20T17:18:47.824Z,25.02
2022-08-20T17:21:23.058Z,24.97
2022-08-20T17:23:58.773Z,24.82
2022-08-20T17:26:37.142Z,24.73
2022-08-20T17:29:28.081Z,24.75
2022-08-20T17:31:59.696Z,24.83
2022-08-20T17:34:46.358Z,24.63
2022-08-20T17:37:27.644Z,24.66
2022-08-20T17:40:09.352Z,24.65
2022-08-20T17:42:50.156Z,24.62
2022-08-20T17:45:34.182Z,24.59
2022-08-20T17:48:03.478Z,24.59
2022-08-20T17:50:39.708Z,24.51
2022-08-20T17:53:28.594Z,24.52
2022-08-20T17:56:02.788Z,24.42
2022-08-20T17:58:54.429Z,24.32
2022-08-20T18:01:24.317Z,24.32
2022-08-20T18:03:53.569Z,24.34
2022-08-20T18:06:52.694Z,24.25
2022-08-20T18:09:44.638Z,24.17
2022-08-20T18:12:49.592Z,24.08
2022-08-20T18:15:38.134Z,23.93
2022-08-20T18:18:24.811Z,23.87
2022-08-20T18:21:22.201Z,23.71
2022-08-20T18:24:05.454Z,23.69
2022-08-20T18:26:46.462Z,23.69
2022-08-20T18:29:37.253Z,23.55
2022-08-20T18:32:29.206Z,23.47
2022-08-20T18:35:08.314Z,23.41
2022-08-20T18:37:36.576Z,23.33
2022-08-20T18:40:27.781Z,23.28
2022-08-20T18:42:58.771Z,23.18
2022-08-20T18:45:36.445Z,23.09
2022-08-20T18:48:05.811Z,23.04
2022-08-20T18:50:39.549Z,22.94
2022-08-20T18:53:16.876Z,22.81
2022-08-20T18:55:48.313Z,22.80
2022-08-20T18:58:33.873Z,22.74
2022-08-20T19:01:07.682Z,22.65
2022-08-20T19:03:35.788Z,22.59
2022-08-20T19:06:27.179Z,22.51
2022-08-20T19:09:13.871Z,22.37
2022-08-20T19:12:09.308Z,22.32
2022-08-20T19:15:07.732Z,22.20
2022-08-20T19:18:08.385Z,22.16
2022-08-20T19:20:38.769Z,22.09
2022-08-20T19:23:15.936Z,22.05
2022-08-20T19:26:00.004Z,21.98
2022-08-20T19:28:51.130Z,21.88
2022-08-20T19:31:29.507Z,21.85
2022-08-20T19:34:18.972Z,21.79
2022-08-20T19:37:27.588Z,21.72
2022-08-20T19:40:07.481Z,21.68
2022-08-20T19:42:43.992Z,21.58
2022-08-20T19:45:30.758Z,21.57
2022-08-20T19:48:02.767Z,21.55
2022-08-20T19:50:51.632Z,21.53
2022-08-20T19:53:36.673Z,21.44
2022-08-20T19:56:20.087Z,21.38
2022-08-20T19:59:00.144Z,21.31
2022-08-20T20:01:28.907Z,21.28
2022-08-20T20:04:03.543Z,21.24
2022-08-20T20:06:38.732Z,21.22
2022-08-20T20:09:20.029Z,21.17
2022-08-20T20:11:56.232Z,21.14
2022-08-20T20:14:30.123Z,21.13
2022-08-20T20:16:59.498Z,21.08
2022-08-20T20:19:28.451Z,21.08
2022-08-20T20:22:20.505Z,21.04
2022-08-20T20:25:00.458Z,21.03
2022-08-20T20:27:29.460Z,20.93
2022-08-20T20:30:07.615Z,20.89
2022-08-20T20:32:42.902Z,20.85
2022-08-20T20:35:20.718Z,20.77
2022-08-20T20:38:05.793Z,20.72
2022-08-20T20:40:44.880Z,20.65
2022-08-20T20:43:37.961Z,20.64
2022-08-20T20:46:23.567Z,20.55
2022-08-20T20:48:55.606Z,20.52
2022-08-20T20:51:27.746Z,20.48
2022-08-20T20:54:03.837Z,20.44
2022-08-20T20:56:31.618Z,20.41
2022-08-20T20:59:05.295Z,20.39
2022-08-20T21:01:48.142Z,20.37
2022-08-20T21:04:24.149Z,20.34
2022-08-20T21:06:56.507Z,20.31
2022-08-20T21:09:26.749Z,20.25
2022-08-20T21:11:54.511Z,20.20
2022-08-20T21:14:22.349Z,20.18
2022-08-20T21:16:50.109Z,20.14
2022-08-20T21:19:20.250Z,20.14
2022-08-20T21:21:48.629Z,20.11
2022-08-20T21:24:18.020Z,20.04
2022-08-20T21:26:46.831Z,20.01
2022-08-20T21:29:18.426Z,20.00
2022-08-20T21:31:47.195Z,20.00
2022-08-20T21:34:20.730Z,19.98
2022-08-20T21:36:49.942Z,19.96
2022-08-20T21:39:17.723Z,19.91
2022-08-20T21:41:47.463Z,19.87
2022-08-20T21:44:27.110Z,19.86
2022-08-20T21:46:59.659Z,19.84
2022-08-20T21:49:29.613Z,19.84
2022-08-20T21:51:57.603Z,19.81
2022-08-20T21:54:27.020Z,19.79
2022-08-20T21:57:19.051Z,19.71
2022-08-20T21:59:47.055Z,19.63
2022-08-20T22:02:19.348Z,19.59
2022-08-20T22:04:47.354Z,19.53
2022-08-20T22:07:17.226Z,19.52
2022-08-20T22:09:44.893Z,19.49
2022-08-20T22:12:24.222Z,19.46
2022-08-20T22:14:52.857Z,19.42
2022-08-20T22:17:21.062Z,19.39
2022-08-20T22:19:49.173Z,19.39
2022-08-20T22:22:18.555Z,19.41
2022-08-20T22:24:47.048Z,19.38
2022-08-20T22:27:18.702Z,19.38
2022-08-20T22:29:46.808Z,19.42
2022-08-20T22:32:16.135Z,19.41
2022-08-20T22:34:46.200Z,19.39
2022-08-20T22:37:16.019Z,19.39
2022-08-20T22:39:44.653Z,19.33
2022-08-20T22:42:14.669Z,19.28
2022-08-20T22:44:43.853Z,19.19
2022-08-20T22:47:15.061Z,19.18
2022-08-20T22:49:44.455Z,19.15
2022-08-20T22:52:15.526Z,19.15
2022-08-20T22:54:46.124Z,19.21
2022-08-20T22:57:15.852Z,19.14
2022-08-20T22:59:53.220Z,19.10
2022-08-20T23:02:23.668Z,19.00
2022-08-20T23:04:51.729Z,18.98
2022-08-20T23:07:19.981Z,19.01
2022-08-20T23:09:47.694Z,19.05
2022-08-20T23:12:16.646Z,19.02
2022-08-20T23:14:44.792Z,19.00
2022-08-20T23:17:19.825Z,19.00
2022-08-20T23:19:49.575Z,18.97
2022-08-20T23:22:19.475Z,18.95
2022-08-20T23:24:48.319Z,18.91
2022-08-20T23:27:22.156Z,18.90
2022-08-20T23:29:49.970Z,18.91
2022-08-20T23:32:18.113Z,18.85
2022-08-20T23:34:47.914Z,18.87
2022-08-20T23:37:20.029Z,18.81
2022-08-20T23:39:49.808Z,18.80
2022-08-20T23:42:18.401Z,18.77
2022-08-20T23:44:46.639Z,18.75
2022-08-20T23:47:21.394Z,18.70
2022-08-20T23:49:50.269Z,18.65
2022-08-20T23:52:18.767Z,18.54
2022-08-20T23:54:46.645Z,18.56
2022-08-20T23:57:14.758Z,18.54
2022-08-20T23:59:43.164Z,18.47
